createdAt,value
2017-08-11T00:00:53.361Z,1.10
2017-08-11T00:03:20.941Z,1.55
2017-08-11T00:05:48.530Z,1.80
2017-08-11T00:08:17.160Z,1.40
2017-08-11T00:10:44.725Z,1.12
2017-08-11T00:13:12.297Z,1.40
2017-08-11T00:15:39.877Z,1.65
2017-08-11T00:18:07.471Z,1.40
2017-08-11T00:20:35.169Z,1.55
2017-08-11T00:23:02.795Z,1.33
2017-08-11T00:25:30.386Z,1.48
2017-08-11T00:27:57.949Z,1.42
2017-08-11T00:30:25.522Z,1.37
2017-08-11T00:32:53.100Z,1.70
2017-08-11T00:35:21.037Z,1.90
2017-08-11T00:37:48.593Z,1.60
2017-08-11T00:40:16.158Z,1.92
2017-08-11T00:42:43.733Z,1.40
2017-08-11T00:45:11.305Z,1.25
2017-08-11T00:47:38.902Z,1.80
2017-08-11T00:50:06.473Z,1.60
2017-08-11T00:52:34.038Z,1.73
2017-08-11T00:55:01.618Z,1.40
2017-08-11T00:57:29.200Z,1.80
2017-08-11T00:59:56.754Z,1.85
2017-08-11T01:02:24.706Z,1.70
2017-08-11T01:04:52.279Z,1.35
2017-08-11T01:07:19.845Z,1.50
2017-08-11T01:09:47.425Z,1.45
2017-08-11T01:12:15.020Z,1.70
2017-08-11T01:14:42.622Z,1.60
2017-08-11T01:17:10.191Z,1.95
2017-08-11T01:19:37.774Z,1.27
2017-08-11T01:22:05.345Z,1.20
2017-08-11T01:24:32.925Z,1.00
2017-08-11T01:27:00.502Z,1.40
2017-08-11T01:29:28.351Z,1.08
2017-08-11T01:31:55.927Z,0.93
2017-08-11T01:34:23.508Z,1.00
2017-08-11T01:36:51.871Z,1.15
2017-08-11T01:39:19.452Z,1.12
2017-08-11T01:41:47.872Z,1.05
2017-08-11T01:44:15.437Z,1.00
2017-08-11T01:46:43.032Z,1.05
2017-08-11T01:49:10.602Z,1.20
2017-08-11T01:51:38.947Z,1.10
2017-08-11T01:54:06.529Z,1.00
2017-08-11T01:56:34.112Z,1.20
2017-08-11T01:59:01.696Z,1.02
2017-08-11T02:01:29.268Z,1.02
2017-08-11T02:03:56.858Z,1.42
2017-08-11T02:06:24.410Z,1.27
2017-08-11T02:08:51.990Z,1.40
2017-08-11T02:11:20.321Z,1.50
2017-08-11T02:13:48.189Z,1.23
2017-08-11T02:16:15.762Z,1.25
2017-08-11T02:18:43.325Z,1.30
2017-08-11T02:21:10.913Z,1.37
2017-08-11T02:23:39.230Z,1.35
2017-08-11T02:26:06.810Z,1.17
2017-08-11T02:28:34.385Z,1.50
2017-08-11T02:31:01.956Z,1.60
2017-08-11T02:33:29.517Z,1.67
2017-08-11T02:35:58.137Z,1.55
2017-08-11T02:38:25.691Z,1.50
2017-08-11T02:40:53.248Z,1.60
2017-08-11T02:43:20.823Z,1.70
2017-08-11T02:45:48.407Z,1.00
2017-08-11T02:48:15.984Z,1.20
2017-08-11T02:50:43.578Z,1.55
2017-08-11T02:53:11.159Z,1.65
2017-08-11T02:55:38.720Z,1.23
2017-08-11T02:58:06.614Z,1.20
2017-08-11T03:00:34.190Z,1.23
2017-08-11T03:03:01.896Z,1.52
2017-08-11T03:05:29.491Z,1.58
2017-08-11T03:07:57.080Z,1.37
2017-08-11T03:10:25.439Z,1.20
2017-08-11T03:12:53.018Z,1.50
2017-08-11T03:15:21.381Z,1.63
2017-08-11T03:17:48.952Z,1.30
2017-08-11T03:20:16.884Z,1.42
2017-08-11T03:22:44.456Z,1.70
2017-08-11T03:25:12.014Z,1.65
2017-08-11T03:27:39.595Z,1.80
2017-08-11T03:30:07.160Z,1.55
2017-08-11T03:32:35.513Z,1.50
2017-08-11T03:35:03.084Z,2.15
2017-08-11T03:37:30.654Z,2.00
2017-08-11T03:39:58.992Z,2.10
2017-08-11T03:42:26.570Z,2.58
2017-08-11T03:44:54.143Z,2.22
2017-08-11T03:47:22.795Z,2.42
2017-08-11T03:49:50.362Z,2.10
2017-08-11T03:52:17.921Z,2.45
2017-08-11T03:54:45.504Z,2.03
2017-08-11T03:57:13.846Z,1.65
2017-08-11T03:59:41.420Z,1.70
2017-08-11T04:02:08.988Z,1.60
2017-08-11T04:04:36.576Z,2.08
2017-08-11T04:07:04.914Z,1.62
2017-08-11T04:09:32.488Z,1.98
2017-08-11T04:12:00.061Z,1.73
2017-08-11T04:14:28.727Z,2.20
2017-08-11T04:16:56.279Z,2.08
2017-08-11T04:19:23.833Z,1.58
2017-08-11T04:21:51.412Z,2.50
2017-08-11T04:24:18.984Z,2.55
2017-08-11T04:26:47.333Z,3.83
2017-08-11T04:29:14.890Z,2.50
2017-08-11T04:31:42.745Z,3.30
2017-08-11T04:34:10.313Z,3.00
2017-08-11T04:36:37.871Z,2.67
2017-08-11T04:39:05.456Z,2.60
2017-08-11T04:41:33.799Z,2.33
2017-08-11T04:44:01.411Z,2.60
2017-08-11T04:46:28.979Z,2.67
2017-08-11T04:48:56.550Z,2.33
2017-08-11T04:51:24.116Z,2.15
2017-08-11T04:53:51.694Z,3.08
2017-08-11T04:56:19.300Z,2.60
2017-08-11T04:58:47.632Z,3.25
2017-08-11T05:01:15.210Z,3.00
2017-08-11T05:03:42.838Z,2.83
2017-08-11T05:06:10.433Z,2.42
2017-08-11T05:08:37.994Z,3.22
2017-08-11T05:11:05.576Z,2.90
2017-08-11T05:13:33.146Z,2.70
2017-08-11T05:16:01.038Z,3.85
2017-08-11T05:18:28.626Z,3.00
2017-08-11T05:20:56.209Z,2.20
2017-08-11T05:23:24.547Z,2.17
2017-08-11T05:25:52.123Z,2.47
2017-08-11T05:28:19.703Z,2.47
2017-08-11T05:30:47.268Z,2.10
2017-08-11T05:33:15.618Z,2.78
2017-08-11T05:35:43.179Z,3.00
2017-08-11T05:38:10.763Z,2.58
2017-08-11T05:40:39.120Z,3.05
2017-08-11T05:43:06.978Z,3.50
2017-08-11T05:45:34.533Z,3.28
2017-08-11T05:48:02.103Z,3.22
2017-08-11T05:50:29.691Z,3.08
2017-08-11T05:52:57.847Z,3.35
2017-08-11T05:55:26.193Z,3.53
2017-08-11T05:57:53.810Z,4.80
2017-08-11T06:00:21.395Z,3.85
2017-08-11T06:02:49.035Z,4.05
2017-08-11T06:05:16.623Z,4.37
2017-08-11T06:07:44.200Z,3.60
2017-08-11T06:10:11.814Z,3.55
2017-08-11T06:12:39.374Z,3.72
2017-08-11T06:15:06.922Z,4.15
2017-08-11T06:17:34.513Z,3.55
2017-08-11T06:20:02.119Z,3.85
2017-08-11T06:22:30.464Z,4.97
2017-08-11T06:24:58.013Z,4.18
2017-08-11T06:27:25.599Z,3.97
2017-08-11T06:29:53.163Z,4.00
2017-08-11T06:32:21.803Z,4.90
2017-08-11T06:34:49.363Z,5.30
2017-08-11T06:37:17.201Z,4.60
2017-08-11T06:39:44.823Z,4.40
2017-08-11T06:42:12.404Z,4.80
2017-08-11T06:44:40.754Z,4.93
2017-08-11T06:47:08.311Z,4.50
2017-08-11T06:49:35.881Z,4.00
2017-08-11T06:52:03.477Z,4.07
2017-08-11T06:54:31.079Z,4.03
2017-08-11T06:56:58.656Z,4.43
2017-08-11T06:59:26.503Z,4.85
2017-08-11T07:01:54.085Z,5.00
2017-08-11T07:04:21.653Z,4.50
2017-08-11T07:06:50.014Z,5.20
2017-08-11T07:09:17.567Z,4.60
2017-08-11T07:11:45.197Z,4.70
2017-08-11T07:14:12.785Z,4.70
2017-08-11T07:16:40.362Z,4.55
2017-08-11T07:19:07.967Z,5.10
2017-08-11T07:21:35.543Z,4.68
2017-08-11T07:24:03.107Z,5.68
2017-08-11T07:26:30.980Z,5.45
2017-08-11T07:31:32.859Z,6.53
2017-08-11T07:34:00.439Z,6.40
2017-08-11T07:36:28.770Z,6.28
2017-08-11T07:38:56.364Z,7.12
2017-08-11T07:41:23.934Z,6.40
2017-08-11T07:43:51.523Z,6.60
2017-08-11T07:46:19.302Z,6.60
2017-08-11T07:48:46.889Z,7.30
2017-08-11T07:51:14.489Z,7.78
2017-08-11T07:53:43.135Z,7.12
2017-08-11T07:56:10.694Z,6.80
2017-08-11T07:58:38.269Z,7.50
2017-08-11T08:01:05.859Z,7.20
2017-08-11T08:03:34.193Z,7.47
2017-08-11T08:06:01.847Z,8.68
2017-08-11T08:08:29.427Z,8.57
2017-08-11T08:10:57.290Z,8.40
2017-08-11T08:13:24.855Z,7.95
2017-08-11T08:15:52.423Z,7.47
2017-08-11T08:18:20.785Z,9.18
2017-08-11T08:20:48.432Z,9.20
2017-08-11T08:23:16.010Z,7.85
2017-08-11T08:25:43.570Z,9.50
2017-08-11T08:28:11.424Z,8.35
2017-08-11T08:30:39.008Z,8.10
2017-08-11T08:33:07.387Z,9.15
2017-08-11T08:35:34.986Z,8.95
2017-08-11T08:38:02.558Z,7.90
2017-08-11T08:40:30.157Z,8.15
2017-08-11T08:42:58.505Z,9.45
2017-08-11T08:45:26.078Z,9.63
2017-08-11T08:47:53.651Z,9.40
2017-08-11T08:50:21.998Z,10.10
2017-08-11T08:52:49.566Z,8.85
2017-08-11T08:55:17.450Z,9.30
2017-08-11T08:57:45.065Z,8.93
2017-08-11T09:00:12.650Z,8.35
2017-08-11T09:02:40.234Z,8.27
2017-08-11T09:05:08.589Z,9.82
2017-08-11T09:07:36.188Z,9.23
2017-08-11T09:10:03.777Z,9.48
2017-08-11T09:12:31.362Z,9.38
2017-08-11T09:14:58.945Z,9.30
2017-08-11T09:17:27.600Z,8.45
2017-08-11T09:19:55.187Z,10.05
2017-08-11T09:22:23.547Z,9.30
2017-08-11T09:25:03.122Z,9.68
2017-08-11T09:27:43.660Z,9.20
2017-08-11T09:30:23.154Z,9.77
2017-08-11T09:33:03.049Z,9.13
2017-08-11T09:35:42.586Z,9.40
2017-08-11T09:38:10.582Z,8.75
2017-08-11T09:40:38.930Z,9.43
2017-08-11T09:43:06.507Z,8.75
2017-08-11T09:45:34.877Z,9.27
2017-08-11T09:48:03.219Z,9.75
2017-08-11T09:50:30.810Z,9.30
2017-08-11T09:52:58.646Z,9.65
2017-08-11T09:55:26.246Z,9.80
2017-08-11T09:57:54.593Z,8.88
2017-08-11T10:00:23.128Z,9.17
2017-08-11T10:02:50.693Z,8.27
2017-08-11T10:05:18.289Z,8.82
2017-08-11T10:07:45.884Z,9.43
2017-08-11T10:10:14.518Z,9.05
2017-08-11T10:12:42.125Z,7.65
2017-08-11T10:15:10.476Z,8.60
2017-08-11T10:17:38.061Z,8.70
2017-08-11T10:20:06.402Z,9.20
2017-08-11T10:22:34.003Z,9.48
2017-08-11T10:25:02.355Z,9.90
2017-08-11T10:27:29.994Z,10.35
2017-08-11T10:29:57.590Z,8.93
2017-08-11T10:32:25.948Z,9.85
2017-08-11T10:34:53.525Z,9.95
2017-08-11T10:37:21.106Z,7.60
2017-08-11T10:39:48.707Z,10.25
2017-08-11T10:42:16.286Z,10.07
2017-08-11T10:44:43.880Z,10.95
2017-08-11T10:47:12.226Z,9.90
2017-08-11T10:49:39.800Z,11.65
2017-08-11T10:52:08.157Z,11.90
2017-08-11T10:54:35.748Z,11.07
2017-08-11T10:57:04.095Z,11.77
2017-08-11T10:59:31.702Z,10.40
2017-08-11T11:01:59.276Z,10.05
2017-08-11T11:04:26.856Z,10.88
2017-08-11T11:06:54.431Z,10.50
2017-08-11T11:09:22.319Z,11.55
2017-08-11T11:11:50.668Z,11.00
2017-08-11T11:14:18.251Z,10.48
2017-08-11T11:16:45.846Z,11.05
2017-08-11T11:19:13.413Z,11.15
2017-08-11T11:21:40.998Z,9.68
2017-08-11T11:24:08.632Z,10.98
2017-08-11T11:26:36.536Z,10.93
2017-08-11T11:29:04.117Z,9.88
2017-08-11T11:31:32.500Z,11.12
2017-08-11T11:34:00.845Z,9.93
2017-08-11T11:36:28.421Z,9.88
2017-08-11T11:38:56.032Z,9.80
2017-08-11T11:41:23.611Z,9.73
2017-08-11T11:43:51.200Z,8.80
2017-08-11T11:46:18.776Z,9.15
2017-08-11T11:48:47.425Z,9.50
2017-08-11T11:51:14.991Z,9.05
2017-08-11T11:53:42.545Z,8.80
2017-08-11T11:56:10.136Z,9.88
2017-08-11T11:58:38.494Z,9.63
2017-08-11T12:01:06.091Z,9.15
2017-08-11T12:03:33.680Z,9.20
2017-08-11T12:06:01.258Z,9.77
2017-08-11T12:08:28.839Z,9.63
2017-08-11T12:10:56.793Z,8.48
2017-08-11T12:13:24.371Z,8.07
2017-08-11T12:15:52.711Z,7.72
2017-08-11T12:18:20.292Z,8.20
2017-08-11T12:20:47.864Z,7.07
2017-08-11T12:23:16.212Z,8.65
2017-08-11T12:25:43.784Z,7.68
2017-08-11T12:28:11.428Z,8.07
2017-08-11T12:30:39.013Z,8.05
2017-08-11T12:33:06.612Z,7.60
2017-08-11T12:35:34.191Z,8.67
2017-08-11T12:38:02.088Z,9.52
2017-08-11T12:40:29.687Z,8.35
2017-08-11T12:42:57.339Z,9.00
2017-08-11T12:45:25.676Z,8.67
2017-08-11T12:47:53.270Z,8.38
2017-08-11T12:50:21.616Z,8.30
2017-08-11T12:52:49.185Z,7.47
2017-08-11T12:55:16.781Z,8.57
2017-08-11T12:57:44.372Z,7.57
2017-08-11T13:00:13.028Z,8.30
2017-08-11T13:02:40.600Z,8.50
2017-08-11T13:05:08.168Z,8.50
2017-08-11T13:07:36.528Z,9.15
2017-08-11T13:10:04.129Z,9.13
2017-08-11T13:12:31.721Z,7.97
2017-08-11T13:14:59.299Z,8.20
2017-08-11T13:17:27.147Z,7.53
2017-08-11T13:19:54.726Z,7.95
2017-08-11T13:22:22.317Z,7.53
2017-08-11T13:24:50.704Z,8.35
2017-08-11T13:27:18.300Z,7.80
2017-08-11T13:29:45.942Z,7.20
2017-08-11T13:32:13.525Z,7.53
2017-08-11T13:34:41.415Z,6.90
2017-08-11T13:37:09.003Z,7.35
2017-08-11T13:39:37.330Z,7.10
2017-08-11T13:42:04.906Z,7.18
2017-08-11T13:44:32.516Z,7.75
2017-08-11T13:47:00.105Z,4.50
2017-08-11T13:49:27.671Z,4.22
2017-08-11T13:51:55.542Z,3.30
2017-08-11T13:54:23.106Z,4.72
2017-08-11T13:56:50.666Z,3.75
2017-08-11T13:59:18.258Z,5.22
2017-08-11T14:01:45.851Z,4.50
2017-08-11T14:04:13.442Z,6.10
2017-08-11T14:06:41.005Z,6.37
2017-08-11T14:09:08.600Z,6.57
2017-08-11T14:11:36.205Z,6.90
2017-08-11T14:14:04.086Z,7.05
2017-08-11T14:16:31.667Z,5.82
2017-08-11T14:18:59.276Z,6.05
2017-08-11T14:21:27.723Z,5.70
2017-08-11T14:24:12.668Z,6.22
2017-08-11T14:26:40.321Z,6.25
2017-08-11T14:29:07.884Z,5.18
2017-08-11T14:31:35.467Z,5.35
2017-08-11T14:34:03.801Z,6.07
2017-08-11T14:36:31.386Z,5.30
2017-08-11T14:38:58.959Z,5.47
2017-08-11T14:41:27.666Z,4.93
2017-08-11T14:43:55.265Z,6.18
2017-08-11T14:46:23.622Z,4.95
2017-08-11T14:48:51.204Z,5.28
2017-08-11T14:51:18.773Z,5.07
2017-08-11T14:53:46.354Z,4.72
2017-08-11T14:56:13.961Z,4.37
2017-08-11T14:58:41.566Z,4.85
2017-08-11T15:01:09.136Z,5.03
2017-08-11T15:03:36.994Z,4.62
2017-08-11T15:06:04.568Z,4.10
2017-08-11T15:08:32.161Z,3.83
2017-08-11T15:10:59.765Z,3.65
2017-08-11T15:13:27.362Z,3.33
2017-08-11T15:15:55.709Z,4.00
2017-08-11T15:18:23.303Z,3.80
2017-08-11T15:20:50.941Z,3.90
2017-08-11T15:23:18.522Z,3.45
2017-08-11T15:25:47.126Z,3.65
2017-08-11T15:28:14.784Z,3.60
2017-08-11T15:30:42.388Z,3.53
2017-08-11T15:33:09.972Z,3.10
2017-08-11T15:35:37.556Z,2.83
2017-08-11T15:38:05.178Z,3.27
2017-08-11T15:40:33.655Z,3.10
2017-08-11T15:43:01.294Z,3.40
2017-08-11T15:45:28.873Z,3.30
2017-08-11T15:47:56.736Z,2.70
2017-08-11T15:50:24.324Z,4.13
2017-08-11T15:52:51.923Z,3.63
2017-08-11T15:55:19.507Z,2.70
2017-08-11T15:57:47.064Z,2.90
2017-08-11T16:00:14.641Z,3.00
2017-08-11T16:02:42.372Z,3.07
2017-08-11T16:05:09.963Z,3.17
2017-08-11T16:07:37.540Z,2.60
2017-08-11T16:10:05.494Z,2.73
2017-08-11T16:12:33.068Z,3.07
2017-08-11T16:15:01.416Z,2.87
2017-08-11T16:17:29.089Z,3.27
2017-08-11T16:19:56.713Z,2.57
2017-08-11T16:22:24.303Z,2.87
2017-08-11T16:24:51.875Z,2.23
2017-08-11T16:27:19.470Z,2.60
2017-08-11T16:29:47.055Z,2.63
2017-08-11T16:32:14.642Z,2.40
2017-08-11T16:34:42.212Z,2.67
2017-08-11T16:37:10.179Z,2.47
2017-08-11T16:39:37.739Z,2.20
2017-08-11T16:42:05.301Z,1.97
2017-08-11T16:44:32.888Z,1.53
2017-08-11T16:47:00.468Z,2.00
2017-08-11T16:49:28.053Z,1.60
2017-08-11T16:51:55.646Z,1.80
2017-08-11T16:54:24.040Z,1.90
2017-08-11T16:56:51.638Z,2.10
2017-08-11T16:59:19.243Z,2.27
2017-08-11T17:01:46.812Z,2.37
2017-08-11T17:04:15.499Z,2.00
2017-08-11T17:06:43.827Z,2.20
2017-08-11T17:09:11.514Z,2.40
2017-08-11T17:11:39.105Z,2.40
2017-08-11T17:14:06.675Z,2.23
2017-08-11T17:16:34.327Z,2.33
2017-08-11T17:19:01.922Z,2.50
2017-08-11T17:21:29.507Z,2.50
2017-08-11T17:23:57.165Z,2.12
2017-08-11T17:26:25.168Z,2.10
2017-08-11T17:28:52.770Z,2.25
2017-08-11T17:31:20.342Z,2.08
2017-08-11T17:33:47.989Z,1.80
2017-08-11T17:36:15.612Z,1.70
2017-08-11T17:38:43.218Z,1.90
2017-08-11T17:41:10.806Z,1.80
2017-08-11T17:43:38.398Z,2.10
2017-08-11T17:46:06.003Z,1.35
2017-08-11T17:48:33.902Z,1.75
2017-08-11T17:51:01.502Z,2.12
2017-08-11T17:53:29.108Z,1.52
2017-08-11T17:55:56.691Z,1.70
2017-08-11T17:58:24.264Z,1.52
2017-08-11T18:00:52.027Z,1.70
2017-08-11T18:03:19.643Z,1.52
2017-08-11T18:05:47.297Z,1.50
2017-08-11T18:08:15.225Z,1.48
2017-08-11T18:10:43.141Z,1.80
2017-08-11T18:13:10.729Z,1.30
2017-08-11T18:15:38.312Z,1.65
2017-08-11T18:18:05.923Z,1.20
2017-08-11T18:20:34.289Z,0.88
2017-08-11T18:23:01.995Z,0.98
2017-08-11T18:25:29.558Z,1.20
2017-08-11T18:27:57.201Z,0.80
2017-08-11T18:30:25.541Z,0.80
2017-08-11T18:32:53.155Z,0.70
2017-08-11T18:35:20.731Z,0.95
2017-08-11T18:37:48.577Z,0.70
2017-08-11T18:40:16.160Z,1.10
2017-08-11T18:42:43.732Z,0.73
2017-08-11T18:45:11.347Z,0.80
2017-08-11T18:47:38.932Z,0.93
2017-08-11T18:50:06.541Z,0.90
2017-08-11T18:52:34.908Z,0.80
2017-08-11T18:55:02.492Z,1.20
2017-08-11T18:57:30.843Z,0.82
2017-08-11T18:59:58.486Z,0.90
2017-08-11T19:02:26.104Z,0.75
2017-08-11T19:04:53.708Z,0.77
2017-08-11T19:07:21.294Z,1.27
2017-08-11T19:09:49.180Z,1.02
2017-08-11T19:12:16.803Z,0.98
2017-08-11T19:14:44.380Z,0.90
2017-08-11T19:17:11.980Z,0.93
2017-08-11T19:19:39.590Z,1.20
2017-08-11T19:22:07.206Z,1.05
2017-08-11T19:24:34.819Z,1.40
2017-08-11T19:27:02.421Z,1.20
2017-08-11T19:29:30.029Z,1.20
2017-08-11T19:31:57.708Z,1.40
2017-08-11T19:34:25.305Z,1.27
2017-08-11T19:36:52.940Z,1.35
2017-08-11T19:39:21.313Z,1.40
2017-08-11T19:41:49.296Z,1.52
2017-08-11T19:44:16.882Z,1.70
2017-08-11T19:46:44.493Z,1.50
2017-08-11T19:49:12.889Z,1.33
2017-08-11T19:51:41.250Z,1.50
2017-08-11T19:54:09.612Z,1.25
2017-08-11T19:56:37.188Z,1.65
2017-08-11T19:59:05.549Z,2.10
2017-08-11T20:01:33.121Z,1.70
2017-08-11T20:04:01.486Z,1.40
2017-08-11T20:06:29.077Z,1.27
2017-08-11T20:08:56.667Z,1.62
2017-08-11T20:11:24.268Z,1.80
2017-08-11T20:13:52.140Z,1.60
2017-08-11T20:16:19.729Z,1.85
2017-08-11T20:18:47.311Z,1.60
2017-08-11T20:21:14.929Z,1.95
2017-08-11T20:23:42.511Z,1.90
2017-08-11T20:26:10.108Z,2.00
2017-08-11T20:28:37.710Z,1.70
2017-08-11T20:31:06.081Z,2.20
2017-08-11T20:33:33.698Z,2.30
2017-08-11T20:36:01.293Z,2.50
2017-08-11T20:38:28.900Z,2.50
2017-08-11T20:40:56.792Z,2.62
2017-08-11T20:43:24.379Z,2.67
2017-08-11T20:45:52.735Z,2.75
2017-08-11T20:48:20.323Z,2.58
2017-08-11T20:50:48.664Z,2.90
2017-08-11T20:53:16.279Z,3.12
2017-08-11T20:55:43.850Z,3.10
2017-08-11T20:58:11.434Z,3.47
2017-08-11T21:00:39.026Z,3.33
2017-08-11T21:03:06.984Z,3.25
2017-08-11T21:05:34.569Z,3.60
2017-08-11T21:08:02.907Z,4.20
2017-08-11T21:10:30.514Z,4.20
2017-08-11T21:12:58.108Z,4.47
2017-08-11T21:15:25.731Z,5.20
2017-08-11T21:17:54.097Z,5.20
2017-08-11T21:20:21.728Z,5.53
2017-08-11T21:22:49.367Z,5.97
2017-08-11T21:25:16.948Z,5.53
2017-08-11T21:27:44.532Z,5.60
2017-08-11T21:30:13.194Z,5.30
2017-08-11T21:32:40.771Z,6.07
2017-08-11T21:35:08.342Z,5.45
2017-08-11T21:37:36.738Z,6.35
2017-08-11T21:40:04.325Z,7.32
2017-08-11T21:42:31.924Z,7.07
2017-08-11T21:44:59.526Z,6.00
2017-08-11T21:47:27.209Z,5.60
2017-08-11T21:49:54.827Z,5.97
2017-08-11T21:52:23.234Z,5.68
2017-08-11T21:54:50.808Z,6.70
2017-08-11T21:57:18.672Z,6.10
2017-08-11T21:59:46.277Z,6.10
2017-08-11T22:02:14.624Z,6.00
2017-08-11T22:04:42.222Z,6.97
2017-08-11T22:07:10.551Z,6.55
2017-08-11T22:09:38.132Z,4.87
2017-08-11T22:12:05.712Z,5.65
2017-08-11T22:14:34.073Z,5.45
2017-08-11T22:17:01.634Z,5.78
2017-08-11T22:19:29.474Z,5.18
2017-08-11T22:21:57.046Z,5.47
2017-08-11T22:24:24.641Z,5.97
2017-08-11T22:26:53.004Z,5.37
2017-08-11T22:29:20.581Z,6.68
2017-08-11T22:31:48.934Z,5.80
2017-08-11T22:34:16.517Z,5.80
2017-08-11T22:36:44.118Z,5.72
2017-08-11T22:39:11.682Z,6.43
2017-08-11T22:41:39.280Z,6.10
2017-08-11T22:44:07.609Z,5.72
2017-08-11T22:46:35.511Z,5.53
2017-08-11T22:49:03.112Z,6.55
2017-08-11T22:51:30.682Z,5.75
2017-08-11T22:53:58.277Z,6.35
2017-08-11T22:56:25.846Z,6.25
2017-08-11T22:58:53.429Z,6.20
2017-08-11T23:01:21.004Z,5.50
2017-08-11T23:03:48.597Z,6.62
2017-08-11T23:06:16.177Z,6.00
2017-08-11T23:08:44.552Z,6.10
2017-08-11T23:11:12.128Z,6.07
2017-08-11T23:13:39.983Z,6.35
2017-08-11T23:16:07.564Z,6.22
2017-08-11T23:18:35.903Z,6.03
2017-08-11T23:21:03.488Z,5.55
2017-08-11T23:23:31.822Z,5.60
2017-08-11T23:25:59.432Z,7.10
2017-08-11T23:28:27.880Z,5.90
2017-08-11T23:30:55.460Z,6.15
2017-08-11T23:33:23.048Z,6.32
2017-08-11T23:35:51.408Z,6.60
2017-08-11T23:38:19.766Z,6.85
2017-08-11T23:40:47.625Z,6.18
2017-08-11T23:43:15.201Z,6.90
2017-08-11T23:45:42.776Z,7.18
2017-08-11T23:48:11.151Z,6.72
2017-08-11T23:50:39.498Z,7.12
2017-08-11T23:53:07.088Z,6.65
2017-08-11T23:55:35.430Z,7.37
2017-08-11T23:58:03.016Z,7.47
